This is the latest recevied weather packets stored in our database for station/object OK4PZ-5. If no packets are shown the sender has not sent any weather packets the latest 1 day(s).
| Time | Temp. | Humidity | Pressure | Rain* | Wind** | Luminosity | Snow |
|---|---|---|---|---|---|---|---|
| 1777990503 | 22.78° C | 41% | 1008 hPa | 0 mm | 2.68 m/s, 102° | - | - |
| 1777989603 | 22.78° C | 41% | 1008 hPa | 0 mm | 0.45 m/s, 170° | - | - |
| 1777988702 | 23.33° C | 40% | 1008 hPa | 0 mm | 2.68 m/s, 120° | - | - |
| 1777987802 | 23.33° C | 40% | 1008 hPa | 0 mm | 1.79 m/s, 123° | - | - |
| 1777986902 | 23.89° C | 39% | 1008 hPa | 0 mm | 2.68 m/s, 86° | - | - |
| 1777986002 | 23.33° C | 42% | 1008 hPa | 0 mm | 0.45 m/s, 123° | - | - |
| 1777985102 | 23.33° C | 41% | 1008 hPa | 0 mm | 0 m/s | - | - |
| 1777984202 | 23.33° C | 41% | 1008 hPa | 0 mm | 0.45 m/s, 326° | - | - |
| 1777983302 | 23.89° C | 41% | 1009 hPa | 0 mm | 1.34 m/s, 84° | - | - |
| 1777982403 | 24.44° C | 40% | 1009 hPa | 0 mm | 0.89 m/s, 60° | - | - |
| 1777981502 | 25° C | 39% | 1009 hPa | 0 mm | 0 m/s | - | - |
| 1777980602 | 25.56° C | 38% | 1009 hPa | 0 mm | 1.79 m/s, 112° | - | - |
| 1777979702 | 25° C | 34% | 1009 hPa | 0 mm | 0 m/s | - | - |
| 1777978803 | 26.11° C | 33% | 1009 hPa | 0 mm | 0.45 m/s, 254° | - | - |
| 1777977903 | 26.11° C | 31% | 1009 hPa | 0 mm | 0.45 m/s, 278° | - | - |
| 1777977003 | 25.56° C | 33% | 1009 hPa | 0 mm | 0.45 m/s, 246° | - | - |
| 1777976103 | 24.44° C | 35% | 1010 hPa | 0 mm | 0.89 m/s, 259° | - | - |
| 1777975202 | 24.44° C | 36% | 1009 hPa | 0 mm | 0 m/s | - | - |
| 1777974302 | 25.56° C | 35% | 1010 hPa | 0 mm | 0.89 m/s, 139° | - | - |
| 1777973402 | 25° C | 36% | 1010 hPa | 0 mm | 0 m/s | - | - |
| 1777972502 | 23.89° C | 38% | 1010 hPa | 0 mm | 0.45 m/s, 242° | - | - |
| 1777971603 | 23.33° C | 40% | 1010 hPa | 0 mm | 0 m/s | - | - |
| 1777970703 | 22.22° C | 42% | 1010 hPa | 0 mm | 0.89 m/s, 56° | - | - |
| 1777969802 | 22.78° C | 41% | 1010 hPa | 0 mm | 0.45 m/s, 40° | - | - |
| 1777968902 | 21.11° C | 44% | 1010 hPa | 0 mm | 0 m/s | - | - |
* Rain latest hour (hover to see other rain measurements)
** Current wind speed in m/s (hover to see current wind gust speed)